Time;durP1;ratioP1;P1;durP2;ratioP2;P2;SDS_P1;SDS_P2;PMS_P1;PMS_P2;Temp;Humidity;BMP_temperature;BMP_pressure;BME280_temperature;BME280_humidity;BME280_pressure;Samples;Min_cycle;Max_cycle;Signal;HPM_P1;HPM_P2
2021/01/09 00:04:05;;;;;;;8.95;7.45;;;;;;;;;;10078424;28;20078;-63
2021/01/09 00:09:03;;;;;;;6.80;6.10;;;;;;;;;;10078322;29;20087;-63
2021/01/09 00:14:00;;;;;;;10.27;8.75;;;;;;;;;;10078007;28;20390;-62
2021/01/09 00:18:58;;;;;;;14.18;11.73;;;;;;;;;;10078021;29;20082;-63
2021/01/09 00:23:56;;;;;;;11.90;8.32;;;;;;;;;;10077377;29;20079;-63
2021/01/09 00:28:53;;;;;;;9.95;8.90;;;;;;;;;;10077670;29;20086;-63
2021/01/09 00:33:51;;;;;;;11.63;10.43;;;;;;;;;;10077221;29;20082;-63
2021/01/09 00:38:48;;;;;;;20.05;14.48;;;;;;;;;;10077502;29;20054;-63
2021/01/09 00:43:47;;;;;;;17.50;12.95;;;;;;;;;;10075890;28;20472;-63
2021/01/09 00:48:45;;;;;;;20.77;15.57;;;;;;;;;;10076699;29;20081;-63
2021/01/09 00:53:42;;;;;;;16.85;12.68;;;;;;;;;;10076419;29;20084;-64
2021/01/09 00:58:40;;;;;;;10.43;9.35;;;;;;;;;;10076516;29;20051;-64
2021/01/09 01:03:39;;;;;;;14.63;10.75;;;;;;;;;;10076600;29;20085;-62
2021/01/09 01:08:37;;;;;;;11.65;10.45;;;;;;;;;;10076180;29;20493;-63
2021/01/09 01:13:34;;;;;;;23.17;18.00;;;;;;;;;;10075842;28;20051;-63
2021/01/09 01:18:31;;;;;;;25.35;16.38;;;;;;;;;;10075641;29;20047;-63
2021/01/09 01:23:30;;;;;;;20.05;15.18;;;;;;;;;;10076111;29;20078;-62
2021/01/09 01:28:27;;;;;;;13.80;11.52;;;;;;;;;;10075039;29;20063;-62
2021/01/09 01:33:24;;;;;;;10.52;9.43;;;;;;;;;;10075888;29;20047;-63
2021/01/09 01:38:22;;;;;;;23.27;15.85;;;;;;;;;;10075727;29;20075;-62
2021/01/09 01:43:20;;;;;;;31.23;18.77;;;;;;;;;;10075789;29;20106;-63
2021/01/09 01:48:17;;;;;;;19.20;15.38;;;;;;;;;;10075752;29;20079;-64
2021/01/09 01:53:14;;;;;;;37.97;18.77;;;;;;;;;;10078693;28;20043;-64
2021/01/09 01:58:12;;;;;;;24.90;19.20;;;;;;;;;;10082564;29;20464;-63
2021/01/09 02:03:10;;;;;;;40.80;27.75;;;;;;;;;;10082412;29;20090;-64
2021/01/09 02:08:10;;;;;;;28.27;20.02;;;;;;;;;;10065335;29;20051;-62
2021/01/09 02:13:11;;;;;;;24.67;14.10;;;;;;;;;;10082634;29;20485;-62
2021/01/09 02:18:12;;;;;;;26.85;18.10;;;;;;;;;;10081790;29;20078;-62
2021/01/09 02:23:10;;;;;;;33.85;17.45;;;;;;;;;;10082140;28;20087;-62
2021/01/09 02:28:07;;;;;;;27.23;16.55;;;;;;;;;;10082140;28;20409;-62
2021/01/09 02:33:06;;;;;;;25.00;19.30;;;;;;;;;;10081977;29;20067;-62
2021/01/09 02:38:04;;;;;;;25.30;17.90;;;;;;;;;;10081759;29;20043;-62
2021/01/09 02:43:03;;;;;;;41.55;31.80;;;;;;;;;;10080822;29;20089;-63
2021/01/09 02:48:00;;;;;;;175.45;23.90;;;;;;;;;;10081371;29;20074;-63
2021/01/09 02:52:57;;;;;;;28.40;16.77;;;;;;;;;;10081200;29;20108;-63
2021/01/09 02:57:55;;;;;;;31.58;16.23;;;;;;;;;;10080987;29;20501;-63
2021/01/09 03:02:53;;;;;;;49.70;14.45;;;;;;;;;;10079945;28;20473;-63
2021/01/09 03:07:50;;;;;;;112.88;20.52;;;;;;;;;;10080220;29;20521;-63
2021/01/09 03:12:48;;;;;;;22.38;13.30;;;;;;;;;;10081518;29;20097;-62
2021/01/09 03:17:45;;;;;;;18.85;13.13;;;;;;;;;;10080355;29;20088;-62
2021/01/09 03:22:43;;;;;;;17.15;14.68;;;;;;;;;;10079686;29;20082;-64
2021/01/09 03:27:40;;;;;;;37.92;19.40;;;;;;;;;;10079251;29;20071;-63
2021/01/09 03:32:38;;;;;;;27.92;18.75;;;;;;;;;;10079795;29;20428;-63
2021/01/09 03:37:35;;;;;;;26.58;18.63;;;;;;;;;;10079535;28;20070;-63
2021/01/09 03:42:33;;;;;;;95.25;49.33;;;;;;;;;;10079082;29;20051;-62
2021/01/09 03:47:31;;;;;;;64.43;35.80;;;;;;;;;;10078153;29;20054;-64
2021/01/09 03:52:28;;;;;;;61.97;34.70;;;;;;;;;;10078650;28;20051;-62
2021/01/09 03:57:26;;;;;;;34.15;21.90;;;;;;;;;;10078540;29;20082;-63
2021/01/09 04:02:24;;;;;;;59.35;23.67;;;;;;;;;;10078439;29;20035;-63
2021/01/09 04:07:21;;;;;;;28.40;15.93;;;;;;;;;;10061319;29;20437;-63
2021/01/09 04:12:19;;;;;;;32.50;25.60;;;;;;;;;;10078080;29;20063;-63
2021/01/09 04:17:16;;;;;;;16.83;13.85;;;;;;;;;;10077935;28;20047;-63
2021/01/09 04:22:14;;;;;;;30.88;18.42;;;;;;;;;;10076060;29;20500;-64
2021/01/09 04:27:11;;;;;;;19.95;17.45;;;;;;;;;;10076238;29;20086;-63
2021/01/09 04:32:09;;;;;;;31.52;12.15;;;;;;;;;;10077312;28;20473;-64
2021/01/09 04:37:07;;;;;;;34.72;26.27;;;;;;;;;;10077159;29;20048;-63
2021/01/09 04:42:06;;;;;;;26.17;16.20;;;;;;;;;;10076804;29;20083;-63
2021/01/09 04:47:03;;;;;;;31.60;18.27;;;;;;;;;;10076802;28;20078;-62
2021/01/09 04:52:03;;;;;;;24.40;18.17;;;;;;;;;;10076546;29;20077;-63
2021/01/09 04:57:00;;;;;;;33.70;19.13;;;;;;;;;;10076576;29;20541;-61
2021/01/09 05:01:59;;;;;;;71.07;58.63;;;;;;;;;;10075682;29;20286;-64
2021/01/09 05:06:56;;;;;;;44.05;17.35;;;;;;;;;;10075736;29;20079;-63
2021/01/09 05:11:56;;;;;;;22.20;18.67;;;;;;;;;;10076483;29;20086;-65
2021/01/09 05:16:55;;;;;;;26.73;15.55;;;;;;;;;;10076018;29;20071;-63
2021/01/09 05:21:54;;;;;;;27.45;20.33;;;;;;;;;;10075308;29;20081;-62
2021/01/09 05:26:53;;;;;;;20.75;14.13;;;;;;;;;;10079858;28;20086;-62
2021/01/09 05:31:50;;;;;;;24.23;18.30;;;;;;;;;;10088868;28;20477;-63
2021/01/09 05:36:47;;;;;;;24.13;19.95;;;;;;;;;;10087999;29;20051;-63
2021/01/09 05:41:46;;;;;;;36.92;29.92;;;;;;;;;;10088933;29;20043;-64
2021/01/09 05:46:44;;;;;;;49.97;36.30;;;;;;;;;;10087043;28;20079;-63
2021/01/09 05:51:42;;;;;;;51.72;33.53;;;;;;;;;;10087699;28;20598;-64
2021/01/09 05:56:40;;;;;;;51.28;35.60;;;;;;;;;;10088752;29;20039;-63
2021/01/09 06:01:41;;;;;;;79.22;53.72;;;;;;;;;;10089390;28;20053;-63
2021/01/09 06:06:46;;;;;;;71.55;49.20;;;;;;;;;;10088952;28;20126;-63
2021/01/09 06:11:43;;;;;;;44.75;32.03;;;;;;;;;;10088672;29;20093;-64
2021/01/09 06:16:42;;;;;;;28.40;21.92;;;;;;;;;;10088446;28;20043;-63
2021/01/09 06:21:39;;;;;;;38.42;28.85;;;;;;;;;;10088839;28;20047;-64
2021/01/09 06:26:37;;;;;;;50.10;35.70;;;;;;;;;;10087893;28;20087;-62
2021/01/09 06:31:34;;;;;;;54.35;36.53;;;;;;;;;;10088153;28;20155;-63
2021/01/09 06:36:33;;;;;;;67.18;52.47;;;;;;;;;;10087329;28;20514;-62
2021/01/09 06:41:33;;;;;;;42.28;31.30;;;;;;;;;;10080592;28;20058;-63
2021/01/09 06:46:31;;;;;;;39.70;27.55;;;;;;;;;;10082105;28;20078;-62
2021/01/09 06:51:42;;;;;;;64.95;45.25;;;;;;;;;;10081308;29;20076;-63
2021/01/09 06:56:39;;;;;;;46.53;34.55;;;;;;;;;;10080848;29;20082;-63
2021/01/09 07:01:37;;;;;;;63.53;42.85;;;;;;;;;;10080542;29;20050;-63
2021/01/09 07:06:53;;;;;;;43.38;33.00;;;;;;;;;;10080035;29;20082;-64
2021/01/09 07:11:52;;;;;;;32.08;24.15;;;;;;;;;;10079847;28;20083;-64
2021/01/09 07:16:49;;;;;;;28.50;22.13;;;;;;;;;;10080563;29;20055;-62
2021/01/09 07:21:47;;;;;;;21.98;19.20;;;;;;;;;;10079825;29;20069;-65
2021/01/09 07:26:48;;;;;;;22.45;17.17;;;;;;;;;;10080029;29;20177;-63
2021/01/09 07:31:47;;;;;;;42.47;28.52;;;;;;;;;;10078992;29;20457;-63
2021/01/09 07:36:47;;;;;;;63.65;42.08;;;;;;;;;;10079576;29;20196;-63
2021/01/09 07:41:47;;;;;;;25.55;21.45;;;;;;;;;;10083437;29;20051;-63
2021/01/09 07:46:52;;;;;;;29.50;21.92;;;;;;;;;;10079054;29;20079;-62
2021/01/09 07:51:50;;;;;;;19.42;14.52;;;;;;;;;;10078758;28;20074;-64
2021/01/09 07:56:47;;;;;;;138.55;89.40;;;;;;;;;;10078701;28;20039;-63
2021/01/09 08:01:46;;;;;;;42.20;30.83;;;;;;;;;;10107732;28;20146;-63
2021/01/09 08:06:44;;;;;;;76.55;48.20;;;;;;;;;;10094568;28;20108;-62
2021/01/09 08:11:41;;;;;;;118.78;78.35;;;;;;;;;;10111657;28;20078;-62
2021/01/09 08:16:39;;;;;;;299.42;156.48;;;;;;;;;;10110121;28;20102;-63
2021/01/09 08:21:37;;;;;;;45.58;30.33;;;;;;;;;;10111587;28;20067;-64
2021/01/09 08:26:35;;;;;;;75.57;47.17;;;;;;;;;;10106629;28;20074;-64
2021/01/09 08:31:36;;;;;;;51.83;31.17;;;;;;;;;;10098882;28;20067;-63
2021/01/09 08:36:34;;;;;;;78.85;43.40;;;;;;;;;;10108229;28;20077;-64
2021/01/09 08:41:38;;;;;;;277.48;122.28;;;;;;;;;;10100512;28;20079;-65
2021/01/09 08:46:36;;;;;;;177.95;77.70;;;;;;;;;;10116782;28;20086;-64
2021/01/09 08:51:34;;;;;;;38.88;24.38;;;;;;;;;;10110567;28;20111;-62
2021/01/09 08:56:32;;;;;;;73.70;35.03;;;;;;;;;;10109813;28;20069;-65
2021/01/09 09:01:33;;;;;;;133.38;61.97;;;;;;;;;;10112868;28;20081;-64
2021/01/09 09:06:32;;;;;;;74.82;40.25;;;;;;;;;;10113761;28;20082;-64
2021/01/09 09:11:31;;;;;;;155.50;79.97;;;;;;;;;;10115089;28;20081;-64
2021/01/09 09:16:28;;;;;;;103.57;57.63;;;;;;;;;;10115430;28;20051;-64
2021/01/09 09:21:27;;;;;;;39.60;27.83;;;;;;;;;;10116078;28;20496;-64
2021/01/09 09:26:30;;;;;;;35.75;25.60;;;;;;;;;;10114039;28;20085;-64
2021/01/09 09:31:28;;;;;;;26.35;18.65;;;;;;;;;;10113933;28;20520;-65
2021/01/09 09:36:27;;;;;;;63.50;36.42;;;;;;;;;;10115399;28;20070;-63
2021/01/09 09:41:24;;;;;;;43.55;32.10;;;;;;;;;;10115930;28;20039;-65
2021/01/09 09:46:21;;;;;;;26.40;20.58;;;;;;;;;;10115129;28;20097;-63
2021/01/09 09:51:19;;;;;;;53.70;38.33;;;;;;;;;;10115781;28;20058;-63
2021/01/09 09:56:17;;;;;;;44.10;31.38;;;;;;;;;;10114891;28;20073;-63
2021/01/09 10:01:18;;;;;;;31.25;22.33;;;;;;;;;;10114196;28;20074;-64
2021/01/09 10:06:16;;;;;;;47.08;29.45;;;;;;;;;;10111967;28;20079;-65
2021/01/09 10:11:13;;;;;;;145.98;96.22;;;;;;;;;;10107295;28;20082;-63
2021/01/09 10:16:11;;;;;;;52.03;32.92;;;;;;;;;;10102240;28;20078;-63
2021/01/09 10:21:09;;;;;;;67.70;47.03;;;;;;;;;;10102894;28;20066;-62
2021/01/09 10:26:06;;;;;;;43.08;33.28;;;;;;;;;;10122196;28;20078;-63
2021/01/09 10:31:04;;;;;;;18.48;14.30;;;;;;;;;;10120478;28;20054;-64
2021/01/09 10:36:02;;;;;;;32.83;22.88;;;;;;;;;;10121590;28;20078;-62
2021/01/09 10:40:59;;;;;;;57.25;41.95;;;;;;;;;;10121864;28;20051;-63
2021/01/09 10:45:57;;;;;;;31.98;24.30;;;;;;;;;;10120947;28;20089;-62
2021/01/09 10:50:54;;;;;;;20.77;16.55;;;;;;;;;;10121047;28;20050;-64
2021/01/09 10:55:55;;;;;;;52.55;40.85;;;;;;;;;;10120863;28;20054;-63
2021/01/09 11:00:53;;;;;;;53.22;40.47;;;;;;;;;;10120475;28;20046;-61
2021/01/09 11:05:51;;;;;;;16.83;13.77;;;;;;;;;;10113374;28;20079;-63
2021/01/09 11:10:49;;;;;;;46.03;36.63;;;;;;;;;;10115546;28;20109;-63
2021/01/09 11:15:47;;;;;;;73.72;48.17;;;;;;;;;;10119672;28;20141;-62
2021/01/09 11:20:45;;;;;;;57.53;35.08;;;;;;;;;;10119858;28;20055;-70
2021/01/09 11:25:43;;;;;;;78.03;50.08;;;;;;;;;;10119501;28;20081;-63
2021/01/09 11:30:41;;;;;;;58.83;40.30;;;;;;;;;;10099706;28;20046;-63
2021/01/09 11:35:39;;;;;;;28.95;20.17;;;;;;;;;;10102096;28;20034;-61
2021/01/09 11:40:50;;;;;;;19.35;15.45;;;;;;;;;;10108168;28;20066;-60
2021/01/09 11:45:47;;;;;;;23.50;18.52;;;;;;;;;;10114592;28;20132;-63
2021/01/09 11:50:46;;;;;;;36.17;25.70;;;;;;;;;;10118589;28;20047;-62
2021/01/09 11:55:49;;;;;;;97.80;67.22;;;;;;;;;;10117079;28;20046;-62
2021/01/09 12:00:47;;;;;;;48.83;34.97;;;;;;;;;;10116203;28;20074;-60
2021/01/09 12:05:47;;;;;;;76.82;48.00;;;;;;;;;;10100221;28;20098;-61
2021/01/09 12:10:45;;;;;;;104.35;62.35;;;;;;;;;;10116997;28;20066;-60
2021/01/09 12:15:46;;;;;;;59.50;36.97;;;;;;;;;;10116414;28;20050;-62
2021/01/09 12:20:43;;;;;;;165.93;81.68;;;;;;;;;;10116751;28;20074;-63
2021/01/09 12:25:42;;;;;;;47.25;33.13;;;;;;;;;;10117125;28;20082;-62
2021/01/09 12:30:39;;;;;;;62.60;43.05;;;;;;;;;;10117846;28;20039;-62
2021/01/09 12:35:36;;;;;;;121.57;74.97;;;;;;;;;;10117052;28;20063;-60
2021/01/09 12:40:35;;;;;;;72.35;45.38;;;;;;;;;;10117099;28;20070;-62
2021/01/09 12:45:33;;;;;;;74.05;52.80;;;;;;;;;;10116192;28;20086;-62
2021/01/09 12:50:31;;;;;;;58.38;38.72;;;;;;;;;;10116004;28;20055;-64
2021/01/09 12:55:28;;;;;;;48.50;31.10;;;;;;;;;;10099294;28;20047;-62
2021/01/09 13:00:26;;;;;;;52.58;38.78;;;;;;;;;;10116145;28;20050;-63
2021/01/09 13:05:24;;;;;;;43.10;29.00;;;;;;;;;;10116285;28;20477;-62
2021/01/09 13:10:21;;;;;;;62.92;42.28;;;;;;;;;;10115295;28;20062;-61
2021/01/09 13:15:18;;;;;;;48.25;32.35;;;;;;;;;;10115345;28;20528;-63
2021/01/09 13:20:16;;;;;;;103.35;65.22;;;;;;;;;;10098135;28;20050;-64
2021/01/09 13:25:14;;;;;;;81.43;54.53;;;;;;;;;;10115669;28;20605;-64
2021/01/09 13:30:12;;;;;;;67.93;46.78;;;;;;;;;;10116023;28;20070;-62
2021/01/09 13:35:10;;;;;;;53.65;41.10;;;;;;;;;;10114654;28;20101;-65
2021/01/09 13:40:08;;;;;;;53.03;39.13;;;;;;;;;;10115016;28;20051;-64
2021/01/09 13:45:07;;;;;;;55.03;41.50;;;;;;;;;;10115704;28;20090;-65
2021/01/09 13:50:06;;;;;;;96.38;56.88;;;;;;;;;;10120037;28;20484;-62
2021/01/09 13:55:03;;;;;;;71.85;46.33;;;;;;;;;;10122492;28;20097;-64
2021/01/09 14:00:00;;;;;;;210.27;118.35;;;;;;;;;;10123327;28;20075;-63
2021/01/09 14:05:01;;;;;;;102.13;64.28;;;;;;;;;;10122865;28;20109;-63
2021/01/09 14:09:59;;;;;;;74.28;49.17;;;;;;;;;;10104632;28;20055;-63
2021/01/09 14:14:56;;;;;;;123.38;82.05;;;;;;;;;;10122528;28;20066;-62
2021/01/09 14:19:53;;;;;;;54.33;40.03;;;;;;;;;;10122231;28;20050;-63
2021/01/09 14:24:52;;;;;;;126.22;80.72;;;;;;;;;;10122020;28;20096;-64
2021/01/09 14:29:50;;;;;;;32.28;23.05;;;;;;;;;;10121635;28;20097;-63
2021/01/09 14:34:47;;;;;;;47.40;32.45;;;;;;;;;;10121810;28;20081;-65
2021/01/09 14:39:45;;;;;;;61.85;37.30;;;;;;;;;;10121229;28;20057;-63
2021/01/09 14:44:43;;;;;;;53.30;37.72;;;;;;;;;;10121470;28;20078;-63
2021/01/09 14:50:01;;;;;;;38.58;25.75;;;;;;;;;;10120459;28;20082;-63
2021/01/09 14:54:59;;;;;;;181.85;110.40;;;;;;;;;;10103833;28;20109;-63
2021/01/09 14:59:57;;;;;;;86.10;55.33;;;;;;;;;;10118961;28;20047;-62
2021/01/09 15:04:54;;;;;;;54.38;34.42;;;;;;;;;;10116461;28;20221;-64
2021/01/09 15:09:52;;;;;;;65.65;41.60;;;;;;;;;;10120130;28;20093;-62
2021/01/09 15:14:49;;;;;;;120.07;73.55;;;;;;;;;;10102071;28;20055;-65
2021/01/09 15:19:47;;;;;;;55.95;38.15;;;;;;;;;;10120505;28;20043;-65
2021/01/09 15:24:45;;;;;;;36.22;28.23;;;;;;;;;;10119404;28;20108;-65
2021/01/09 15:29:43;;;;;;;71.78;48.63;;;;;;;;;;10119031;28;20475;-64
2021/01/09 15:34:40;;;;;;;107.30;70.68;;;;;;;;;;10118841;28;20074;-63
2021/01/09 15:39:38;;;;;;;37.58;27.17;;;;;;;;;;10118161;28;20073;-64
2021/01/09 15:44:55;;;;;;;31.38;22.45;;;;;;;;;;10080194;28;20083;-62
2021/01/09 15:49:52;;;;;;;39.05;27.83;;;;;;;;;;10079969;28;20047;-63
2021/01/09 15:54:51;;;;;;;45.45;32.78;;;;;;;;;;10079723;28;20365;-62
2021/01/09 15:59:49;;;;;;;53.38;34.97;;;;;;;;;;10117545;28;20081;-63
2021/01/09 16:04:46;;;;;;;61.38;39.00;;;;;;;;;;10118255;28;20421;-60
2021/01/09 16:09:43;;;;;;;50.80;33.40;;;;;;;;;;10117491;28;20066;-63
2021/01/09 16:14:42;;;;;;;137.00;85.20;;;;;;;;;;10117272;28;20050;-62
2021/01/09 16:19:40;;;;;;;177.95;84.70;;;;;;;;;;10117720;28;20850;-63
2021/01/09 16:24:39;;;;;;;160.70;81.97;;;;;;;;;;10100355;28;20050;-63
2021/01/09 16:29:36;;;;;;;59.63;37.17;;;;;;;;;;10117605;28;20074;-63
2021/01/09 16:34:34;;;;;;;47.25;33.22;;;;;;;;;;10116491;28;20051;-62
2021/01/09 16:39:32;;;;;;;50.65;33.17;;;;;;;;;;10102255;28;20085;-61
2021/01/09 16:44:29;;;;;;;59.10;42.85;;;;;;;;;;10111021;28;20067;-61
2021/01/09 16:49:27;;;;;;;84.30;57.50;;;;;;;;;;10116147;28;20078;-62
2021/01/09 16:54:25;;;;;;;98.47;65.35;;;;;;;;;;10116634;28;20038;-63
2021/01/09 16:59:23;;;;;;;70.00;43.20;;;;;;;;;;10116617;28;20062;-60
2021/01/09 17:04:20;;;;;;;50.53;37.20;;;;;;;;;;10116425;28;20070;-61
2021/01/09 17:09:18;;;;;;;68.25;46.33;;;;;;;;;;10116175;28;20083;-61
2021/01/09 17:14:16;;;;;;;47.55;33.65;;;;;;;;;;10115544;28;20050;-60
2021/01/09 17:19:13;;;;;;;47.67;37.47;;;;;;;;;;10115197;28;20047;-62
2021/01/09 17:24:11;;;;;;;35.20;27.92;;;;;;;;;;10111910;28;20515;-63
2021/01/09 17:29:08;;;;;;;57.72;39.58;;;;;;;;;;10114187;28;20070;-62
2021/01/09 17:34:07;;;;;;;25.00;16.88;;;;;;;;;;10114503;28;20077;-62
2021/01/09 17:39:05;;;;;;;22.92;16.38;;;;;;;;;;10115019;28;20062;-64
2021/01/09 17:44:02;;;;;;;22.90;17.77;;;;;;;;;;10115003;28;20079;-62
2021/01/09 17:48:59;;;;;;;190.68;97.75;;;;;;;;;;10113350;28;20074;-62
2021/01/09 17:53:58;;;;;;;155.05;82.93;;;;;;;;;;10114761;28;20074;-62
2021/01/09 17:58:55;;;;;;;167.15;94.10;;;;;;;;;;10112102;28;20070;-64
2021/01/09 18:03:52;;;;;;;74.47;42.33;;;;;;;;;;10113970;28;20085;-64
2021/01/09 18:08:50;;;;;;;140.10;63.20;;;;;;;;;;10113242;28;20093;-61
2021/01/09 18:13:49;;;;;;;30.67;18.38;;;;;;;;;;10112694;28;20075;-62
2021/01/09 18:18:48;;;;;;;30.08;22.08;;;;;;;;;;10113980;28;20050;-63
2021/01/09 18:23:46;;;;;;;38.17;26.60;;;;;;;;;;10114103;28;20104;-64
2021/01/09 18:28:44;;;;;;;31.55;24.30;;;;;;;;;;10114204;28;20090;-62
2021/01/09 18:33:46;;;;;;;25.17;18.67;;;;;;;;;;10097853;28;20046;-63
2021/01/09 18:38:44;;;;;;;29.25;19.42;;;;;;;;;;10100128;28;20420;-63
2021/01/09 18:43:44;;;;;;;34.58;24.95;;;;;;;;;;10102849;28;20047;-62
2021/01/09 18:49:10;;;;;;;36.45;25.88;;;;;;;;;;10102548;28;20063;-62
2021/01/09 18:54:34;;;;;;;33.33;24.73;;;;;;;;;;10120508;28;20058;-61
2021/01/09 18:59:32;;;;;;;37.92;28.15;;;;;;;;;;10102768;28;20058;-62
2021/01/09 19:04:30;;;;;;;30.50;21.90;;;;;;;;;;10120657;28;20057;-62
2021/01/09 19:09:48;;;;;;;51.25;36.55;;;;;;;;;;10118328;28;20473;-63
2021/01/09 19:15:02;;;;;;;39.45;31.65;;;;;;;;;;10101768;28;20090;-64
2021/01/09 19:20:09;;;;;;;36.72;30.63;;;;;;;;;;10101324;28;20051;-64
2021/01/09 19:25:10;;;;;;;31.50;24.10;;;;;;;;;;10100012;28;20042;-62
2021/01/09 19:30:09;;;;;;;25.35;19.58;;;;;;;;;;10102403;28;20043;-63
2021/01/09 19:35:08;;;;;;;28.33;20.35;;;;;;;;;;10119552;28;20081;-62
2021/01/09 19:40:15;;;;;;;48.28;29.88;;;;;;;;;;10101235;28;20054;-62
2021/01/09 19:45:26;;;;;;;42.20;27.92;;;;;;;;;;10098677;28;20055;-62
2021/01/09 19:50:25;;;;;;;34.47;26.23;;;;;;;;;;10092002;28;20488;-63
2021/01/09 19:55:23;;;;;;;46.45;35.33;;;;;;;;;;10097556;28;20089;-64
2021/01/09 20:00:22;;;;;;;37.25;26.92;;;;;;;;;;10092437;28;20699;-64
2021/01/09 20:05:50;;;;;;;42.30;30.75;;;;;;;;;;10083054;28;20086;-63
2021/01/09 20:10:48;;;;;;;38.78;26.25;;;;;;;;;;10099763;28;20063;-63
2021/01/09 20:15:46;;;;;;;41.80;27.98;;;;;;;;;;10094440;28;20093;-63
2021/01/09 20:20:55;;;;;;;44.05;29.05;;;;;;;;;;10096484;28;20058;-63
2021/01/09 20:25:53;;;;;;;45.60;29.35;;;;;;;;;;10099594;28;20508;-63
2021/01/09 20:30:52;;;;;;;31.38;22.08;;;;;;;;;;10099596;28;20059;-63
2021/01/09 20:35:53;;;;;;;31.23;21.52;;;;;;;;;;10093728;28;20085;-62
2021/01/09 20:40:53;;;;;;;27.65;18.67;;;;;;;;;;10104884;28;20422;-62
2021/01/09 20:46:09;;;;;;;35.28;24.50;;;;;;;;;;10086481;28;20548;-61
2021/01/09 20:51:06;;;;;;;36.42;24.42;;;;;;;;;;10106987;28;20066;-62
2021/01/09 20:56:05;;;;;;;37.22;23.05;;;;;;;;;;10110082;28;20073;-63
2021/01/09 21:01:09;;;;;;;44.50;25.55;;;;;;;;;;10092135;28;20073;-62
2021/01/09 21:06:09;;;;;;;40.63;23.95;;;;;;;;;;10106030;28;20082;-63
2021/01/09 21:11:07;;;;;;;33.75;21.70;;;;;;;;;;10108846;28;20082;-63
2021/01/09 21:16:06;;;;;;;38.85;25.05;;;;;;;;;;10105197;28;21159;-61
2021/01/09 21:21:07;;;;;;;41.28;25.30;;;;;;;;;;10110793;28;20066;-63
2021/01/09 21:26:04;;;;;;;42.72;27.23;;;;;;;;;;10113855;28;20089;-62
2021/01/09 21:31:03;;;;;;;41.45;24.50;;;;;;;;;;10110415;28;20078;-63
2021/01/09 21:36:01;;;;;;;58.38;31.75;;;;;;;;;;10111985;28;20086;-63
2021/01/09 21:41:01;;;;;;;51.53;27.85;;;;;;;;;;10103049;28;20516;-61
2021/01/09 21:45:59;;;;;;;55.42;29.77;;;;;;;;;;10103626;28;20126;-62
2021/01/09 21:50:57;;;;;;;50.67;30.60;;;;;;;;;;10099400;28;20113;-63
2021/01/09 21:55:54;;;;;;;49.10;25.67;;;;;;;;;;10099366;28;20555;-63
2021/01/09 22:00:52;;;;;;;44.45;24.77;;;;;;;;;;10104999;28;20069;-63
2021/01/09 22:05:49;;;;;;;31.80;19.73;;;;;;;;;;10094685;28;20066;-63
2021/01/09 22:10:47;;;;;;;35.92;22.00;;;;;;;;;;10103684;28;20074;-62
2021/01/09 22:15:46;;;;;;;32.90;20.13;;;;;;;;;;10102794;28;20081;-62
2021/01/09 22:20:43;;;;;;;42.88;22.75;;;;;;;;;;10098900;28;20066;-64
2021/01/09 22:25:40;;;;;;;30.25;19.65;;;;;;;;;;10113850;28;20089;-63
2021/01/09 22:30:39;;;;;;;34.17;20.52;;;;;;;;;;10118869;28;20063;-62
2021/01/09 22:35:36;;;;;;;33.25;22.00;;;;;;;;;;10113564;28;20096;-62
2021/01/09 22:40:34;;;;;;;31.13;18.80;;;;;;;;;;10104738;28;20089;-61
2021/01/09 22:45:32;;;;;;;22.42;14.32;;;;;;;;;;10116569;28;20497;-62
2021/01/09 22:50:30;;;;;;;34.10;16.77;;;;;;;;;;10111704;28;20488;-60
2021/01/09 22:55:28;;;;;;;29.58;16.58;;;;;;;;;;10111958;28;20515;-63
2021/01/09 23:00:26;;;;;;;21.20;14.48;;;;;;;;;;10115956;28;20074;-61
2021/01/09 23:05:24;;;;;;;26.92;17.65;;;;;;;;;;10105657;28;20503;-62
2021/01/09 23:10:23;;;;;;;29.77;18.35;;;;;;;;;;10111799;28;20090;-61
2021/01/09 23:15:20;;;;;;;26.55;18.25;;;;;;;;;;10108902;28;20239;-61
2021/01/09 23:20:19;;;;;;;34.03;21.10;;;;;;;;;;10112283;28;20497;-61
2021/01/09 23:25:16;;;;;;;31.23;19.80;;;;;;;;;;10109263;28;20090;-63
2021/01/09 23:30:17;;;;;;;34.75;19.60;;;;;;;;;;10112097;28;20144;-62
2021/01/09 23:35:16;;;;;;;33.47;19.63;;;;;;;;;;10115713;28;20086;-61
2021/01/09 23:40:15;;;;;;;27.88;17.40;;;;;;;;;;10114310;28;20074;-63
2021/01/09 23:45:14;;;;;;;40.63;22.45;;;;;;;;;;10113349;28;20425;-60
2021/01/09 23:50:14;;;;;;;29.13;17.70;;;;;;;;;;10096171;28;20090;-64
2021/01/09 23:55:12;;;;;;;24.10;15.52;;;;;;;;;;10116968;28;20059;-63
